Three Stars — 3ELI2 — position and weather

sailwx.info

Track history (hours):
 
Tides and Currents Weather Stations Pressure Air Temp Water Temp Dewpoint Dewpoint Depression Visibility Wind Speed Wind Dir Waves Ship Positions

Three Stars

Last reported at 2015-Mar-22 17:33 UTC. Time now 2015-Apr-02 07:54 UTC.
Position N 28°22' W 016°01'.
Warning: this ship's position is 10 days out of date.

Length 225 m; draft 13.4 m.

Type: Cargo ship. MMSI: 372950000.

Date/timePositionNaut miles runAvg speedWind from/ knotsBaromVisibWave heightAir tempDewpointWater temp
2015-Mar-22 17:33N 28°22' W 016°01'1212.0
2015-Mar-22 16:33N 28°31' W 015°53'1211.7
2015-Mar-22 15:33N 28°40' W 015°45'1211.6
2015-Mar-22 14:33N 28°51' W 015°39'1211.8
2015-Mar-22 13:31N 29°02' W 015°34'  
2015-Mar-18 02:18N 46°03' W 002°00'911.9
2015-Mar-18 01:33N 46°07' W 001°49'1110.7
2015-Mar-18 00:33N 46°08' W 001°33'1010.5
2015-Mar-17 23:33N 46°06' W 001°18'  
2015-Mar-15 16:26N 46°05' W 001°17'14 1.7
2015-Mar-15 08:04N 46°08' W 001°36'711.6
2015-Mar-15 07:30N 46°09' W 001°45'1011.0
2015-Mar-15 06:33N 46°16' W 001°57'9 9.3
2015-Mar-15 05:33N 46°21' W 002°08'1211.5
2015-Mar-15 04:33N 46°28' W 002°22'206 6.0
2015-Mar-13 18:21N 49°45' W 000°54'1214.6
2015-Mar-13 17:33N 49°40' W 000°38'1413.6
2015-Mar-13 16:33N 49°34' W 000°20'1211.9
2015-Mar-13 15:33N 49°29' W 000°03'1110.6
2015-Mar-13 14:33N 49°26' E 000°13'10 9.7
2015-Mar-13 13:33N 49°28' E 000°27'6 5.9
2015-Mar-13 12:33N 49°26' E 000°36'8 7.2
2015-Mar-13 11:25N 49°31' E 000°45'8 5.8
2015-Mar-13 10:07N 49°25' E 000°52'4 5.8
2015-Mar-13 09:23N 49°28' E 000°56'  
Track history (hours):
 
Tides and Currents Weather Stations Pressure Air Temp Water Temp Dewpoint Dewpoint Depression Visibility Wind Speed Wind Dir Waves Ship Positions

Three Stars

Last reported at 2015-Mar-22 17:33 UTC. Time now 2015-Apr-02 07:54 UTC.
Position N 28°22' W 016°01'.
Warning: this ship's position is 10 days out of date.

Length 225 m; draft 13.4 m.

Type: Cargo ship. MMSI: 372950000.

Date/timePositionNaut miles runAvg speedWind from/ knotsBaromVisibWave heightAir tempDewpointWater temp
2015-Mar-22 17:33N 28°22' W 016°01'1212.0
2015-Mar-22 16:33N 28°31' W 015°53'1211.7
2015-Mar-22 15:33N 28°40' W 015°45'1211.6
2015-Mar-22 14:33N 28°51' W 015°39'1211.8
2015-Mar-22 13:31N 29°02' W 015°34'  
2015-Mar-18 02:18N 46°03' W 002°00'911.9
2015-Mar-18 01:33N 46°07' W 001°49'1110.7
2015-Mar-18 00:33N 46°08' W 001°33'1010.5
2015-Mar-17 23:33N 46°06' W 001°18'  
2015-Mar-15 16:26N 46°05' W 001°17'14 1.7
2015-Mar-15 08:04N 46°08' W 001°36'711.6
2015-Mar-15 07:30N 46°09' W 001°45'1011.0
2015-Mar-15 06:33N 46°16' W 001°57'9 9.3
2015-Mar-15 05:33N 46°21' W 002°08'1211.5
2015-Mar-15 04:33N 46°28' W 002°22'206 6.0
2015-Mar-13 18:21N 49°45' W 000°54'1214.6
2015-Mar-13 17:33N 49°40' W 000°38'1413.6
2015-Mar-13 16:33N 49°34' W 000°20'1211.9
2015-Mar-13 15:33N 49°29' W 000°03'1110.6
2015-Mar-13 14:33N 49°26' E 000°13'10 9.7
2015-Mar-13 13:33N 49°28' E 000°27'6 5.9
2015-Mar-13 12:33N 49°26' E 000°36'8 7.2
2015-Mar-13 11:25N 49°31' E 000°45'8 5.8
2015-Mar-13 10:07N 49°25' E 000°52'4 5.8
2015-Mar-13 09:23N 49°28' E 000°56'  

Dump ship's entire track history